createdAt,value
2022-10-04T00:04:39.627Z,16.23
2022-10-04T00:10:02.517Z,16.01
2022-10-04T00:15:36.637Z,15.80
2022-10-04T00:20:58.279Z,15.63
2022-10-04T00:26:05.134Z,15.47
2022-10-04T00:31:11.564Z,15.31
2022-10-04T00:36:36.997Z,15.25
2022-10-04T00:41:44.152Z,15.20
2022-10-04T00:46:47.911Z,15.10
2022-10-04T00:52:10.623Z,14.96
2022-10-04T00:57:19.020Z,14.91
2022-10-04T01:02:25.851Z,14.95
2022-10-04T01:07:37.450Z,14.73
2022-10-04T01:13:04.975Z,14.67
2022-10-04T01:18:13.920Z,14.66
2022-10-04T01:23:52.718Z,14.57
2022-10-04T01:28:55.243Z,14.65
2022-10-04T01:33:56.908Z,14.75
2022-10-04T01:38:58.582Z,14.76
2022-10-04T01:44:02.826Z,14.82
2022-10-04T01:49:08.690Z,14.73
2022-10-04T01:54:15.153Z,14.82
2022-10-04T01:59:24.238Z,14.82
2022-10-04T02:04:30.187Z,15.01
2022-10-04T02:09:33.850Z,15.22
2022-10-04T02:14:38.472Z,15.36
2022-10-04T02:19:41.728Z,15.37
2022-10-04T02:24:46.235Z,15.45
2022-10-04T02:29:47.471Z,15.47
2022-10-04T02:34:49.703Z,15.34
2022-10-04T02:40:04.043Z,15.27
2022-10-04T02:45:16.293Z,15.29
2022-10-04T02:50:20.399Z,15.30
2022-10-04T02:55:30.499Z,15.30
2022-10-04T03:00:31.904Z,15.34
2022-10-04T03:05:33.234Z,15.40
2022-10-04T03:10:34.747Z,15.39
2022-10-04T03:15:37.595Z,15.39
2022-10-04T03:20:39.683Z,15.42
2022-10-04T03:25:55.119Z,15.40
2022-10-04T03:30:57.320Z,15.36
2022-10-04T03:36:00.187Z,15.36
2022-10-04T03:41:02.503Z,15.44
2022-10-04T03:46:05.603Z,15.56
2022-10-04T03:51:13.760Z,15.59
2022-10-04T03:56:24.108Z,15.59
2022-10-04T04:01:47.224Z,15.60
2022-10-04T04:07:06.983Z,15.70
2022-10-04T04:12:37.802Z,15.78
2022-10-04T04:17:42.053Z,15.91
2022-10-04T04:22:48.728Z,15.86
2022-10-04T04:27:55.533Z,15.85
2022-10-04T04:33:00.790Z,15.85
2022-10-04T04:38:22.260Z,15.83
2022-10-04T04:43:27.205Z,15.84
2022-10-04T04:48:28.514Z,15.81
2022-10-04T04:53:30.343Z,15.75
2022-10-04T04:58:59.137Z,15.76
2022-10-04T05:04:20.649Z,15.71
2022-10-04T05:09:25.615Z,15.77
2022-10-04T05:14:30.983Z,15.77
2022-10-04T05:19:36.707Z,15.73
2022-10-04T05:24:42.296Z,15.65
2022-10-04T05:30:06.005Z,15.69
2022-10-04T05:35:17.274Z,15.81
2022-10-04T05:40:44.917Z,15.92
2022-10-04T05:45:46.676Z,15.99
2022-10-04T05:50:48.128Z,16.05
2022-10-04T05:56:26.962Z,16.07
2022-10-04T06:02:06.008Z,16.15
2022-10-04T06:07:32.251Z,16.23
2022-10-04T06:12:52.494Z,16.22
2022-10-04T06:26:54.172Z,16.06
2022-10-04T06:32:10.860Z,16.11
2022-10-04T06:37:50.745Z,16.11
2022-10-04T06:43:17.924Z,16.02
2022-10-04T06:48:38.751Z,15.96
2022-10-04T06:53:59.767Z,16.06
2022-10-04T06:59:24.483Z,16.27
2022-10-04T07:05:08.895Z,16.47
2022-10-04T07:10:17.770Z,16.62
2022-10-04T07:15:25.133Z,16.66
2022-10-04T07:20:33.753Z,16.72
2022-10-04T07:25:48.072Z,16.87
2022-10-04T07:31:14.158Z,16.98
2022-10-04T07:36:29.337Z,17.15
2022-10-04T07:41:46.519Z,17.27
2022-10-04T07:46:58.035Z,17.60
2022-10-04T07:52:19.336Z,17.89
2022-10-04T07:57:30.960Z,18.19
2022-10-04T08:02:52.337Z,18.45
2022-10-04T08:08:14.625Z,18.56
2022-10-04T08:13:33.231Z,17.60
2022-10-04T08:18:57.166Z,18.81
2022-10-04T08:24:17.384Z,17.75
2022-10-04T08:29:44.738Z,17.21
2022-10-04T08:35:16.162Z,17.82
2022-10-04T08:41:03.657Z,17.70
2022-10-04T08:46:25.969Z,17.60
2022-10-04T08:51:43.811Z,17.72
2022-10-04T08:57:00.746Z,17.89
2022-10-04T09:02:27.939Z,18.19
2022-10-04T09:07:55.235Z,17.64
2022-10-04T09:13:35.408Z,17.07
2022-10-04T09:18:59.049Z,17.74
2022-10-04T09:24:19.948Z,16.61
2022-10-04T09:29:41.288Z,16.63
2022-10-04T09:35:12.820Z,17.99
2022-10-04T09:40:37.165Z,18.12
2022-10-04T09:46:07.679Z,16.75
2022-10-04T09:51:41.880Z,17.14
2022-10-04T09:56:44.507Z,18.37
2022-10-04T10:02:10.011Z,18.20
2022-10-04T10:07:31.189Z,17.04
2022-10-04T10:13:03.385Z,17.13
2022-10-04T10:18:16.614Z,18.46
2022-10-04T10:23:46.158Z,17.75
2022-10-04T10:29:08.972Z,16.84
2022-10-04T10:34:52.386Z,17.89
2022-10-04T10:40:08.950Z,17.61
2022-10-04T10:45:30.017Z,17.03
2022-10-04T10:51:10.257Z,17.61
2022-10-04T10:56:45.763Z,16.75
2022-10-04T11:02:11.144Z,17.46
2022-10-04T11:07:46.981Z,17.66
2022-10-04T11:13:18.831Z,16.66
2022-10-04T11:18:50.522Z,16.86
2022-10-04T11:24:08.924Z,18.37
2022-10-04T11:29:26.667Z,18.64
2022-10-04T11:34:47.698Z,17.89
2022-10-04T11:40:02.505Z,17.30
2022-10-04T11:45:13.745Z,17.96
2022-10-04T11:50:35.269Z,18.32
2022-10-04T11:55:37.677Z,17.31
2022-10-04T12:01:18.506Z,16.69
2022-10-04T12:06:31.288Z,17.39
2022-10-04T12:12:25.407Z,18.53
2022-10-04T12:17:58.683Z,17.58
2022-10-04T12:23:33.245Z,17.12
2022-10-04T12:29:12.644Z,16.86
2022-10-04T12:34:34.317Z,17.28
2022-10-04T12:40:06.632Z,16.92
2022-10-04T12:45:34.759Z,16.41
2022-10-04T12:50:50.106Z,16.16
2022-10-04T12:56:21.744Z,17.24
2022-10-04T13:01:40.825Z,18.12
2022-10-04T13:07:09.123Z,17.33
2022-10-04T13:12:34.230Z,16.85
2022-10-04T13:17:55.338Z,16.67
2022-10-04T13:23:35.580Z,16.53
2022-10-04T13:29:03.518Z,16.35
2022-10-04T13:34:43.424Z,16.21
2022-10-04T13:40:16.305Z,15.98
2022-10-04T13:45:37.449Z,15.79
2022-10-04T13:50:58.860Z,15.64
2022-10-04T13:56:33.751Z,15.57
2022-10-04T14:01:57.862Z,15.43
2022-10-04T14:07:38.141Z,15.20
2022-10-04T14:13:16.629Z,15.60
2022-10-04T14:18:48.785Z,16.44
2022-10-04T14:24:23.060Z,16.38
2022-10-04T14:29:46.110Z,16.13
2022-10-04T14:35:15.800Z,15.94
2022-10-04T14:40:37.357Z,15.75
2022-10-04T14:45:58.374Z,15.60
2022-10-04T14:51:15.428Z,15.39
2022-10-04T14:56:33.191Z,15.43
2022-10-04T15:01:45.587Z,15.94
2022-10-04T15:07:10.847Z,15.81
2022-10-04T15:12:51.900Z,15.57
2022-10-04T15:18:03.342Z,15.32
2022-10-04T15:23:16.217Z,15.13
2022-10-04T15:28:42.699Z,14.97
2022-10-04T15:34:22.370Z,14.81
2022-10-04T15:39:43.717Z,14.58
2022-10-04T15:45:24.196Z,14.34
2022-10-04T15:50:52.188Z,14.07
2022-10-04T15:56:33.080Z,13.82
2022-10-04T16:01:41.581Z,14.40
2022-10-04T16:07:22.182Z,15.89
2022-10-04T16:12:33.103Z,16.77
2022-10-04T16:18:05.081Z,16.71
2022-10-04T16:23:26.478Z,15.38
2022-10-04T16:28:47.670Z,14.56
2022-10-04T16:34:29.439Z,13.95
2022-10-04T16:40:00.138Z,14.14
2022-10-04T16:45:05.327Z,15.47
2022-10-04T16:50:10.703Z,16.10
2022-10-04T16:55:26.831Z,16.48
2022-10-04T17:00:36.658Z,16.16
2022-10-04T17:05:58.834Z,14.75
2022-10-04T17:11:30.004Z,13.79
2022-10-04T17:16:57.778Z,13.81
2022-10-04T17:22:23.322Z,15.07
2022-10-04T17:27:46.693Z,15.45
2022-10-04T17:33:30.308Z,15.55
2022-10-04T17:38:47.432Z,15.35
2022-10-04T17:43:56.661Z,15.16
2022-10-04T17:49:23.384Z,15.00
2022-10-04T17:54:57.571Z,15.31
2022-10-04T18:00:12.170Z,15.52
2022-10-04T18:05:42.572Z,15.57
2022-10-04T18:10:52.796Z,15.62
2022-10-04T18:16:09.161Z,15.71
2022-10-04T18:21:31.980Z,15.71
2022-10-04T18:26:34.918Z,15.06
2022-10-04T18:31:40.907Z,13.56
2022-10-04T18:37:17.706Z,13.03
2022-10-04T18:42:27.457Z,13.77
2022-10-04T18:47:37.002Z,14.12
2022-10-04T18:53:07.102Z,14.28
2022-10-04T18:59:05.986Z,14.49
2022-10-04T19:04:17.246Z,14.71
2022-10-04T19:09:38.722Z,14.79
2022-10-04T19:14:53.503Z,14.87
2022-10-04T19:20:17.848Z,15.09
2022-10-04T19:25:35.606Z,15.25
2022-10-04T19:30:48.331Z,15.16
2022-10-04T19:36:15.748Z,15.11
2022-10-04T19:41:55.973Z,15.09
2022-10-04T19:47:25.449Z,15.12
2022-10-04T19:52:53.836Z,15.18
2022-10-04T19:58:04.267Z,15.23
2022-10-04T20:03:12.658Z,15.18
2022-10-04T20:08:36.162Z,15.19
2022-10-04T20:13:38.642Z,15.07
2022-10-04T20:18:41.942Z,14.74
2022-10-04T20:23:47.785Z,14.56
2022-10-04T20:28:50.371Z,14.57
2022-10-04T20:33:53.003Z,14.44
2022-10-04T20:39:01.068Z,14.34
2022-10-04T20:44:06.695Z,14.16
2022-10-04T20:49:18.606Z,14.14
2022-10-04T20:54:22.484Z,14.07
2022-10-04T20:59:25.035Z,14.35
2022-10-04T21:04:42.124Z,14.62
2022-10-04T21:09:45.341Z,15.06
2022-10-04T21:15:02.584Z,15.23
2022-10-04T21:20:12.758Z,15.41
2022-10-04T21:25:34.047Z,15.45
2022-10-04T21:30:36.410Z,14.78
2022-10-04T21:35:39.082Z,13.25
2022-10-04T21:40:41.535Z,12.22
2022-10-04T21:45:44.065Z,12.06
2022-10-04T21:50:46.757Z,13.15
2022-10-04T21:55:49.311Z,14.00
2022-10-04T22:00:51.772Z,14.41
2022-10-04T22:05:54.265Z,14.41
2022-10-04T22:10:57.867Z,14.37
2022-10-04T22:16:02.447Z,14.55
2022-10-04T22:21:05.473Z,14.82
2022-10-04T22:26:17.813Z,14.98
2022-10-04T22:31:25.042Z,15.08
2022-10-04T22:36:36.919Z,15.15
2022-10-04T22:41:45.439Z,15.37
2022-10-04T22:46:59.705Z,15.52
2022-10-04T22:52:10.014Z,15.58
2022-10-04T22:57:14.988Z,15.57
2022-10-04T23:02:21.876Z,15.45
2022-10-04T23:07:24.697Z,15.33
2022-10-04T23:12:27.193Z,15.31
2022-10-04T23:17:34.437Z,15.04
2022-10-04T23:22:37.118Z,14.75
2022-10-04T23:27:40.113Z,15.09
2022-10-04T23:32:45.326Z,15.29
2022-10-04T23:37:48.979Z,15.36
2022-10-04T23:42:56.386Z,15.51
2022-10-04T23:48:01.092Z,15.57
2022-10-04T23:53:06.523Z,15.63
2022-10-04T23:58:19.011Z,15.63
